createdAt,value
2019-04-29T00:01:21.446Z,74.35
2019-04-29T00:03:51.170Z,74.20
2019-04-29T00:06:21.831Z,74.47
2019-04-29T00:08:51.473Z,74.73
2019-04-29T00:11:21.380Z,74.85
2019-04-29T00:13:51.398Z,74.36
2019-04-29T00:16:29.771Z,74.12
2019-04-29T00:19:13.423Z,74.19
2019-04-29T00:21:43.148Z,73.85
2019-04-29T00:24:12.891Z,73.75
2019-04-29T00:26:42.623Z,73.88
2019-04-29T00:29:12.289Z,73.72
2019-04-29T00:31:41.948Z,73.80
2019-04-29T00:34:11.608Z,74.03
2019-04-29T00:36:54.020Z,74.23
2019-04-29T00:39:44.896Z,73.84
2019-04-29T00:42:36.414Z,73.63
2019-04-29T00:45:06.856Z,73.53
2019-04-29T00:47:36.520Z,73.49
2019-04-29T00:50:06.754Z,73.31
2019-04-29T00:52:36.401Z,73.27
2019-04-29T00:55:10.802Z,72.94
2019-04-29T00:57:40.455Z,73.22
2019-04-29T01:00:12.511Z,73.39
2019-04-29T01:02:42.199Z,73.55
2019-04-29T01:05:12.206Z,73.42
2019-04-29T01:07:41.861Z,73.30
2019-04-29T01:10:12.468Z,73.11
2019-04-29T01:12:42.359Z,73.29
2019-04-29T01:15:12.499Z,73.09
2019-04-29T01:17:42.221Z,73.18
2019-04-29T01:20:12.449Z,72.79
2019-04-29T01:22:42.882Z,73.05
2019-04-29T01:25:12.888Z,72.95
2019-04-29T01:27:49.308Z,73.35
2019-04-29T01:31:05.882Z,73.57
2019-04-29T01:33:35.594Z,73.94
2019-04-29T01:36:23.033Z,74.53
2019-04-29T01:38:54.513Z,74.80
2019-04-29T01:41:26.375Z,74.32
2019-04-29T01:43:59.450Z,74.04
2019-04-29T01:46:29.658Z,74.32
2019-04-29T01:48:59.456Z,74.74
2019-04-29T01:51:29.202Z,74.93
2019-04-29T01:53:58.921Z,74.79
2019-04-29T01:56:28.583Z,74.71
2019-04-29T01:58:58.301Z,74.54
2019-04-29T02:01:27.954Z,74.66
2019-04-29T02:03:58.680Z,74.17
2019-04-29T02:06:28.533Z,74.20
2019-04-29T02:08:58.187Z,73.89
2019-04-29T02:11:27.850Z,73.95
2019-04-29T02:13:57.512Z,74.02
2019-04-29T02:16:27.188Z,74.22
2019-04-29T02:18:56.851Z,74.42
2019-04-29T02:21:26.522Z,74.22
2019-04-29T02:24:05.366Z,73.92
2019-04-29T02:26:35.041Z,74.09
2019-04-29T02:29:04.832Z,74.29
2019-04-29T02:31:42.342Z,74.13
2019-04-29T02:34:12.073Z,73.86
2019-04-29T02:36:41.811Z,73.79
2019-04-29T02:39:29.440Z,73.66
2019-04-29T02:42:27.153Z,73.61
2019-04-29T02:45:00.129Z,73.57
2019-04-29T02:47:29.798Z,73.56
2019-04-29T02:49:59.447Z,73.50
2019-04-29T02:52:29.114Z,73.46
2019-04-29T02:55:01.182Z,73.57
2019-04-29T02:57:38.690Z,73.15
2019-04-29T03:00:19.674Z,73.76
2019-04-29T03:02:54.737Z,73.88
2019-04-29T03:05:27.155Z,74.09
2019-04-29T03:07:57.164Z,73.88
2019-04-29T03:10:26.830Z,73.54
2019-04-29T03:12:56.495Z,73.66
2019-04-29T03:15:31.237Z,73.78
2019-04-29T03:18:02.105Z,73.94
2019-04-29T03:20:37.158Z,74.01
2019-04-29T03:23:15.209Z,74.25
2019-04-29T03:25:44.928Z,74.54
2019-04-29T03:28:14.619Z,74.13
2019-04-29T03:30:44.297Z,74.28
2019-04-29T03:33:14.102Z,74.16
2019-04-29T03:35:43.854Z,74.24
2019-04-29T03:38:13.512Z,73.90
2019-04-29T03:40:44.285Z,74.02
2019-04-29T03:43:13.944Z,74.46
2019-04-29T03:45:43.585Z,74.61
2019-04-29T03:48:13.252Z,74.48
2019-04-29T03:50:42.916Z,74.03
2019-04-29T03:53:12.590Z,74.01
2019-04-29T03:55:42.231Z,74.22
2019-04-29T03:58:12.964Z,73.95
2019-04-29T04:00:44.491Z,73.93
2019-04-29T04:03:21.530Z,73.81
2019-04-29T04:06:08.891Z,73.71
2019-04-29T04:08:41.926Z,73.62
2019-04-29T04:11:11.568Z,73.62
2019-04-29T04:13:41.260Z,73.49
2019-04-29T04:16:15.473Z,73.52
2019-04-29T04:18:45.122Z,73.46
2019-04-29T04:21:14.770Z,73.39
2019-04-29T04:23:44.451Z,73.10
2019-04-29T04:26:14.109Z,73.12
2019-04-29T04:28:43.792Z,72.85
2019-04-29T04:31:13.478Z,73.08
2019-04-29T04:33:43.141Z,73.43
2019-04-29T04:36:12.845Z,72.81
2019-04-29T04:38:42.510Z,72.75
2019-04-29T04:41:12.163Z,72.97
2019-04-29T04:43:41.836Z,72.89
2019-04-29T04:46:11.497Z,72.91
2019-04-29T04:48:41.149Z,72.85
2019-04-29T04:51:10.818Z,72.54
2019-04-29T04:53:40.472Z,73.28
2019-04-29T04:56:10.211Z,72.92
2019-04-29T04:58:39.960Z,73.10
2019-04-29T05:01:09.605Z,73.51
2019-04-29T05:03:39.321Z,73.29
2019-04-29T05:06:09.173Z,73.63
2019-04-29T05:08:38.819Z,73.46
2019-04-29T05:11:08.501Z,73.45
2019-04-29T05:13:38.147Z,73.81
2019-04-29T05:16:07.823Z,74.36
2019-04-29T05:18:37.478Z,74.14
2019-04-29T05:21:07.149Z,73.47
2019-04-29T05:23:36.803Z,74.02
2019-04-29T05:26:06.483Z,73.48
2019-04-29T05:28:36.130Z,73.37
2019-04-29T05:31:05.882Z,73.57
2019-04-29T05:33:35.538Z,73.82
2019-04-29T05:36:17.247Z,73.89
2019-04-29T05:38:55.740Z,73.33
2019-04-29T05:41:30.217Z,74.10
2019-04-29T05:44:19.018Z,73.09
2019-04-29T05:46:57.052Z,73.38
2019-04-29T05:49:32.021Z,72.84
2019-04-29T05:52:21.157Z,72.98
2019-04-29T05:54:50.804Z,73.55
2019-04-29T05:57:25.215Z,74.41
2019-04-29T05:59:51.795Z,74.66
2019-04-29T06:02:23.575Z,74.33
2019-04-29T06:04:54.000Z,74.72
2019-04-29T06:07:26.781Z,74.95
2019-04-29T06:09:55.311Z,75.42
2019-04-29T06:12:24.971Z,75.19
2019-04-29T06:14:54.644Z,75.49
2019-04-29T06:17:24.317Z,75.50
2019-04-29T06:19:53.967Z,75.50
2019-04-29T06:22:23.639Z,75.78
2019-04-29T06:24:53.309Z,75.60
2019-04-29T06:27:22.982Z,75.32
2019-04-29T06:29:52.760Z,75.76
2019-04-29T06:32:24.825Z,75.71
2019-04-29T06:34:53.741Z,75.83
2019-04-29T06:37:23.404Z,75.60
2019-04-29T06:39:53.067Z,76.09
2019-04-29T06:42:22.727Z,76.50
2019-04-29T06:44:52.390Z,76.56
2019-04-29T06:47:22.062Z,76.45
2019-04-29T06:49:51.723Z,75.92
2019-04-29T06:52:21.399Z,75.44
2019-04-29T06:54:51.065Z,75.53
2019-04-29T06:57:20.735Z,75.87
2019-04-29T06:59:50.390Z,76.32
2019-04-29T07:02:20.140Z,76.02
2019-04-29T07:04:49.797Z,77.24
2019-04-29T07:07:19.479Z,76.41
2019-04-29T07:09:49.153Z,77.12
2019-04-29T07:12:18.835Z,77.22
2019-04-29T07:14:48.565Z,77.51
2019-04-29T07:17:18.247Z,77.29
2019-04-29T07:19:47.934Z,77.37
2019-04-29T07:22:20.879Z,77.40
2019-04-29T07:24:49.037Z,78.09
2019-04-29T07:27:18.757Z,77.87
2019-04-29T07:29:48.491Z,78.59
2019-04-29T07:32:18.170Z,78.83
2019-04-29T07:34:47.876Z,78.19
2019-04-29T07:37:17.563Z,77.84
2019-04-29T07:39:47.244Z,77.97
2019-04-29T07:42:16.976Z,78.23
2019-04-29T07:45:05.681Z,78.65
2019-04-29T07:47:36.337Z,78.42
2019-04-29T07:50:06.859Z,78.45
2019-04-29T07:52:36.559Z,78.07
2019-04-29T07:55:06.799Z,78.00
2019-04-29T07:57:36.499Z,77.85
2019-04-29T08:00:08.544Z,77.88
2019-04-29T08:02:38.251Z,78.20
2019-04-29T08:05:08.365Z,78.25
2019-04-29T08:07:39.087Z,78.98
2019-04-29T08:10:22.785Z,79.31
2019-04-29T08:12:43.234Z,79.42
2019-04-29T08:15:13.355Z,79.78
2019-04-29T08:17:43.019Z,79.88
2019-04-29T08:20:13.139Z,80.00
2019-04-29T08:22:42.849Z,80.32
2019-04-29T08:25:12.853Z,80.44
2019-04-29T08:27:43.867Z,79.99
2019-04-29T08:30:14.025Z,80.03
2019-04-29T08:32:43.752Z,79.52
2019-04-29T08:35:13.434Z,79.86
2019-04-29T08:37:43.103Z,79.92
2019-04-29T08:40:16.193Z,79.40
2019-04-29T08:42:50.772Z,79.38
2019-04-29T08:45:28.543Z,79.12
2019-04-29T08:47:58.695Z,79.54
2019-04-29T08:50:28.438Z,79.56
2019-04-29T08:52:58.099Z,79.31
2019-04-29T08:55:30.885Z,79.97
2019-04-29T08:57:59.211Z,79.60
2019-04-29T09:00:28.880Z,79.51
2019-04-29T09:02:58.555Z,79.43
2019-04-29T09:05:28.388Z,79.46
2019-04-29T09:07:59.119Z,79.57
2019-04-29T09:10:33.066Z,79.64
2019-04-29T09:13:01.321Z,79.72
2019-04-29T09:15:30.997Z,79.89
2019-04-29T09:18:00.675Z,80.12
2019-04-29T09:20:30.340Z,79.99
2019-04-29T09:23:03.351Z,79.45
2019-04-29T09:25:42.492Z,79.95
2019-04-29T09:28:17.978Z,79.75
2019-04-29T09:30:45.077Z,80.31
2019-04-29T09:33:14.844Z,80.17
2019-04-29T09:35:44.651Z,80.12
2019-04-29T09:38:14.330Z,79.81
2019-04-29T09:40:54.568Z,79.73
2019-04-29T09:43:39.726Z,79.51
2019-04-29T09:46:18.527Z,79.42
2019-04-29T09:48:47.953Z,79.65
2019-04-29T09:51:22.135Z,80.02
2019-04-29T09:53:49.163Z,80.26
2019-04-29T09:56:18.865Z,79.89
2019-04-29T09:58:50.328Z,79.43
2019-04-29T10:01:36.856Z,79.40
2019-04-29T10:04:16.792Z,79.75
2019-04-29T10:06:47.813Z,79.35
2019-04-29T10:09:17.705Z,78.75
2019-04-29T10:11:47.390Z,79.12
2019-04-29T10:14:17.046Z,78.19
2019-04-29T10:17:04.286Z,78.27
2019-04-29T10:19:55.752Z,77.81
2019-04-29T10:22:25.423Z,77.08
2019-04-29T10:24:55.092Z,76.67
2019-04-29T10:27:24.841Z,77.48
2019-04-29T10:29:57.114Z,77.32
2019-04-29T10:32:26.913Z,76.87
2019-04-29T10:34:56.568Z,77.06
2019-04-29T10:37:31.434Z,76.32
2019-04-29T10:40:11.250Z,76.19
2019-04-29T10:43:02.276Z,75.50
2019-04-29T10:45:43.747Z,75.96
2019-04-29T10:48:20.488Z,75.10
2019-04-29T10:50:52.624Z,74.64
2019-04-29T10:53:23.434Z,73.80
2019-04-29T10:55:53.510Z,73.71
2019-04-29T10:58:30.230Z,73.41
2019-04-29T11:02:01.322Z,73.77
2019-04-29T11:04:31.619Z,73.76
2019-04-29T11:07:13.564Z,73.50
2019-04-29T11:09:52.789Z,72.50
2019-04-29T11:12:22.425Z,73.45
2019-04-29T11:14:52.102Z,72.89
2019-04-29T11:17:24.248Z,72.50
2019-04-29T11:19:54.494Z,72.72
2019-04-29T11:22:28.449Z,71.64
2019-04-29T11:25:15.723Z,71.35
2019-04-29T11:27:49.628Z,71.20
2019-04-29T11:30:23.039Z,71.60
2019-04-29T11:33:10.620Z,72.57
2019-04-29T11:36:03.908Z,71.18
2019-04-29T11:38:33.415Z,71.43
2019-04-29T11:41:02.197Z,71.78
2019-04-29T11:43:32.055Z,72.43
2019-04-29T11:46:01.777Z,70.94
2019-04-29T11:48:31.620Z,71.01
2019-04-29T11:51:14.098Z,70.92
2019-04-29T11:53:43.771Z,72.00
2019-04-29T11:56:13.438Z,71.50
2019-04-29T11:58:49.074Z,70.43
2019-04-29T12:01:51.712Z,69.62
2019-04-29T12:04:32.823Z,70.38
2019-04-29T12:06:59.906Z,70.08
2019-04-29T12:09:30.564Z,69.40
2019-04-29T12:12:01.116Z,68.10
2019-04-29T12:14:48.100Z,67.89
2019-04-29T12:17:39.509Z,65.84
2019-04-29T12:20:17.621Z,66.24
2019-04-29T12:22:48.902Z,64.08
2019-04-29T12:25:18.883Z,62.41
2019-04-29T12:27:52.787Z,63.05
2019-04-29T12:30:22.008Z,61.30
2019-04-29T12:33:03.577Z,58.62
2019-04-29T12:35:52.041Z,59.32
2019-04-29T12:38:40.126Z,59.12
2019-04-29T12:41:31.600Z,59.48
2019-04-29T12:44:15.200Z,58.76
2019-04-29T12:46:51.430Z,58.79
2019-04-29T12:49:21.177Z,59.08
2019-04-29T12:51:50.852Z,59.26
2019-04-29T12:54:20.586Z,58.72
2019-04-29T12:56:50.348Z,57.58
2019-04-29T12:59:20.229Z,55.90
2019-04-29T13:02:05.319Z,55.51
2019-04-29T13:04:49.880Z,56.73
2019-04-29T13:07:34.458Z,56.04
2019-04-29T13:10:13.880Z,54.08
2019-04-29T13:12:44.531Z,56.50
2019-04-29T13:15:33.367Z,55.03
2019-04-29T13:18:14.311Z,55.16
2019-04-29T13:20:45.642Z,55.71
2019-04-29T13:23:19.529Z,54.03
2019-04-29T13:25:44.716Z,54.36
2019-04-29T13:28:29.229Z,55.01
2019-04-29T13:30:46.662Z,55.64
2019-04-29T13:33:17.010Z,53.77
2019-04-29T13:35:48.355Z,52.81
2019-04-29T13:38:18.393Z,53.04
2019-04-29T13:40:48.298Z,51.57
2019-04-29T13:43:20.748Z,51.21
2019-04-29T13:45:57.814Z,53.21
2019-04-29T13:48:55.826Z,52.27
2019-04-29T13:51:36.063Z,51.78
2019-04-29T13:53:55.379Z,52.46
2019-04-29T13:56:33.195Z,51.15
2019-04-29T13:58:57.954Z,51.16
2019-04-29T14:02:01.284Z,51.85
2019-04-29T14:04:27.594Z,52.08
2019-04-29T14:06:57.761Z,52.22
2019-04-29T14:09:27.619Z,51.99
2019-04-29T14:12:02.123Z,51.32
2019-04-29T14:14:28.683Z,49.42
2019-04-29T14:17:17.232Z,50.93
2019-04-29T14:19:45.056Z,49.36
2019-04-29T14:22:01.193Z,49.42
2019-04-29T14:24:30.862Z,48.48
2019-04-29T14:27:00.548Z,48.65
2019-04-29T14:29:30.445Z,47.59
2019-04-29T14:32:01.342Z,48.51
2019-04-29T14:34:38.050Z,48.94
2019-04-29T14:37:21.356Z,48.95
2019-04-29T14:39:39.099Z,46.94
2019-04-29T14:42:17.194Z,46.27
2019-04-29T14:45:06.872Z,48.03
2019-04-29T14:47:42.714Z,47.02
2019-04-29T14:50:15.542Z,48.33
2019-04-29T14:52:44.667Z,47.60
2019-04-29T14:55:20.082Z,48.16
2019-04-29T14:57:46.996Z,49.12
2019-04-29T15:00:27.210Z,48.48
2019-04-29T15:03:00.771Z,47.78
2019-04-29T15:05:28.313Z,47.83
2019-04-29T15:07:58.015Z,47.86
2019-04-29T15:10:31.249Z,48.42
2019-04-29T15:13:19.312Z,48.67
2019-04-29T15:16:03.743Z,47.65
2019-04-29T15:18:50.176Z,48.26
2019-04-29T15:21:33.762Z,48.77
2019-04-29T15:24:04.048Z,47.88
2019-04-29T15:26:33.737Z,48.51
2019-04-29T15:29:03.465Z,49.40
2019-04-29T15:31:33.190Z,49.83
2019-04-29T15:34:02.941Z,48.67
2019-04-29T15:36:34.822Z,49.54
2019-04-29T15:39:11.210Z,49.02
2019-04-29T15:41:38.801Z,50.17
2019-04-29T15:44:13.825Z,48.97
2019-04-29T15:46:46.204Z,49.00
2019-04-29T15:49:11.472Z,50.17
2019-04-29T15:51:44.179Z,49.94
2019-04-29T15:54:14.442Z,49.61
2019-04-29T15:56:44.099Z,49.65
2019-04-29T15:59:13.914Z,49.92
2019-04-29T16:01:44.109Z,49.75
2019-04-29T16:04:20.921Z,49.93
2019-04-29T16:06:58.773Z,50.11
2019-04-29T16:09:51.891Z,49.79
2019-04-29T16:12:22.839Z,49.80
2019-04-29T16:14:52.636Z,50.32
2019-04-29T16:17:22.337Z,50.20
2019-04-29T16:19:51.998Z,49.72
2019-04-29T16:22:22.234Z,49.46
2019-04-29T16:24:58.928Z,49.34
2019-04-29T16:27:23.512Z,50.05
2019-04-29T16:29:54.267Z,50.72
2019-04-29T16:32:32.641Z,50.39
2019-04-29T16:35:02.324Z,50.33
2019-04-29T16:37:33.367Z,50.15
2019-04-29T16:40:03.167Z,50.62
2019-04-29T16:42:43.146Z,50.60
2019-04-29T16:45:14.369Z,51.21
2019-04-29T16:47:47.459Z,51.27
2019-04-29T16:50:15.841Z,51.06
2019-04-29T16:52:45.774Z,51.05
2019-04-29T16:55:15.532Z,51.46
2019-04-29T16:57:46.159Z,51.25
2019-04-29T17:00:20.139Z,51.30
2019-04-29T17:02:50.088Z,51.87
2019-04-29T17:05:19.833Z,52.05
2019-04-29T17:07:49.485Z,51.67
2019-04-29T17:10:28.289Z,52.13
2019-04-29T17:12:57.951Z,52.86
2019-04-29T17:15:28.063Z,53.49
2019-04-29T17:17:57.728Z,53.23
2019-04-29T17:20:27.403Z,52.55
2019-04-29T17:22:57.231Z,53.08
2019-04-29T17:25:26.980Z,53.00
2019-04-29T17:28:24.291Z,53.04
2019-04-29T17:31:02.138Z,53.52
2019-04-29T17:33:57.076Z,54.14
2019-04-29T17:36:27.312Z,54.14
2019-04-29T17:38:57.028Z,54.12
2019-04-29T17:41:26.673Z,54.79
2019-04-29T17:44:20.030Z,54.80
2019-04-29T17:46:56.436Z,55.13
2019-04-29T17:49:35.318Z,54.84
2019-04-29T17:52:09.051Z,55.35
2019-04-29T17:54:41.286Z,55.65
2019-04-29T17:57:29.206Z,55.92
2019-04-29T18:00:26.077Z,56.27
2019-04-29T18:03:15.176Z,56.34
2019-04-29T18:06:05.474Z,56.57
2019-04-29T18:08:44.882Z,57.05
2019-04-29T18:11:15.053Z,57.31
2019-04-29T18:13:45.850Z,57.38
2019-04-29T18:16:23.789Z,56.97
2019-04-29T18:19:15.778Z,57.19
2019-04-29T18:22:08.818Z,57.23
2019-04-29T18:24:45.528Z,57.49
2019-04-29T18:27:17.334Z,57.76
2019-04-29T18:29:47.104Z,57.48
2019-04-29T18:32:16.780Z,57.74
2019-04-29T18:34:46.512Z,57.79
2019-04-29T18:37:16.782Z,58.21
2019-04-29T18:39:46.499Z,58.29
2019-04-29T18:42:16.251Z,58.81
2019-04-29T18:44:54.977Z,58.94
2019-04-29T18:47:22.657Z,58.86
2019-04-29T18:49:49.696Z,59.33
2019-04-29T18:52:25.902Z,59.63
2019-04-29T18:54:50.721Z,59.50
2019-04-29T18:57:30.003Z,60.72
2019-04-29T18:59:51.739Z,60.23
2019-04-29T19:02:21.416Z,60.31
2019-04-29T19:04:56.848Z,60.46
2019-04-29T19:08:13.937Z,61.11
2019-04-29T19:10:40.051Z,61.41
2019-04-29T19:13:12.999Z,61.90
2019-04-29T19:15:45.045Z,62.40
2019-04-29T19:18:17.423Z,62.95
2019-04-29T19:20:47.846Z,63.49
2019-04-29T19:23:22.536Z,63.95
2019-04-29T19:25:49.852Z,64.14
2019-04-29T19:28:29.354Z,64.53
2019-04-29T19:30:51.021Z,64.85
2019-04-29T19:33:20.710Z,65.38
2019-04-29T19:44:55.966Z,67.08
2019-04-29T19:47:55.688Z,66.89
2019-04-29T19:50:25.755Z,66.83
2019-04-29T19:52:55.668Z,65.77
2019-04-29T19:55:27.843Z,63.68
2019-04-29T19:57:57.556Z,62.35
2019-04-29T20:00:29.295Z,61.95
2019-04-29T20:02:59.624Z,61.65
2019-04-29T20:05:41.408Z,61.73
2019-04-29T20:08:19.254Z,61.64
2019-04-29T20:10:48.052Z,62.04
2019-04-29T20:13:15.821Z,61.79
2019-04-29T20:15:55.733Z,62.91
2019-04-29T20:18:40.392Z,62.54
2019-04-29T20:21:24.929Z,62.83
2019-04-29T20:23:46.754Z,63.69
2019-04-29T20:26:23.393Z,62.51
2019-04-29T20:28:51.133Z,61.17
2019-04-29T20:31:22.194Z,59.10
2019-04-29T20:33:51.365Z,57.91
2019-04-29T20:36:37.415Z,56.73
2019-04-29T20:38:53.378Z,54.33
2019-04-29T20:41:37.768Z,53.38
2019-04-29T20:43:56.202Z,53.11
2019-04-29T20:46:34.264Z,52.65
2019-04-29T20:48:59.624Z,52.37
2019-04-29T20:51:48.802Z,53.02
2019-04-29T20:54:15.827Z,52.83
2019-04-29T20:56:46.956Z,54.53
2019-04-29T20:59:15.748Z,54.04
2019-04-29T21:01:52.016Z,53.64
2019-04-29T21:04:31.281Z,54.85
2019-04-29T21:07:01.859Z,54.28
2019-04-29T21:09:30.035Z,54.79
2019-04-29T21:12:10.570Z,54.64
2019-04-29T21:14:46.463Z,55.03
2019-04-29T21:17:27.971Z,54.96
2019-04-29T21:19:47.243Z,55.35
2019-04-29T21:22:21.972Z,55.90
2019-04-29T21:24:49.431Z,55.64
2019-04-29T21:27:22.571Z,56.35
2019-04-29T21:29:53.990Z,54.68
2019-04-29T21:32:34.598Z,55.31
2019-04-29T21:37:32.203Z,54.79
2019-04-29T21:40:14.832Z,56.41
2019-04-29T21:43:13.672Z,55.07
2019-04-29T21:45:45.018Z,55.66
2019-04-29T21:48:12.823Z,55.25
2019-04-29T21:50:42.518Z,55.42
2019-04-29T21:53:12.208Z,54.50
2019-04-29T21:55:41.907Z,54.88
2019-04-29T21:58:11.684Z,54.75
2019-04-29T22:00:41.362Z,54.94
2019-04-29T22:03:12.779Z,55.52
2019-04-29T22:05:42.636Z,55.85
2019-04-29T22:08:16.147Z,57.90
2019-04-29T22:10:45.173Z,56.76
2019-04-29T22:13:15.037Z,56.45
2019-04-29T22:15:45.583Z,55.07
2019-04-29T22:18:17.819Z,54.81
2019-04-29T22:20:47.662Z,54.24
2019-04-29T22:23:18.575Z,53.65
2019-04-29T22:25:48.727Z,54.03
2019-04-29T22:28:19.865Z,52.71
2019-04-29T22:30:54.818Z,51.66
2019-04-29T22:33:22.637Z,51.33
2019-04-29T22:35:52.501Z,51.27
2019-04-29T22:38:22.263Z,50.99
2019-04-29T22:40:54.994Z,52.56
2019-04-29T22:43:44.537Z,52.82
2019-04-29T22:46:17.285Z,52.76
2019-04-29T22:48:48.707Z,54.97
2019-04-29T22:51:18.815Z,53.76
2019-04-29T22:53:49.112Z,53.89
2019-04-29T22:56:19.121Z,54.57
2019-04-29T22:58:48.903Z,55.39
2019-04-29T23:01:18.576Z,54.52
2019-04-29T23:03:48.454Z,56.71
2019-04-29T23:06:18.324Z,57.15
2019-04-29T23:08:48.087Z,58.78
2019-04-29T23:11:17.791Z,58.45
2019-04-29T23:13:49.082Z,59.21
2019-04-29T23:16:19.026Z,58.41
2019-04-29T23:18:48.764Z,58.24
2019-04-29T23:21:46.790Z,58.48
2019-04-29T23:24:51.340Z,57.64
2019-04-29T23:27:19.936Z,56.81
2019-04-29T23:29:49.777Z,57.04
2019-04-29T23:32:19.707Z,56.95
2019-04-29T23:34:49.531Z,56.46
2019-04-29T23:37:23.756Z,57.05
2019-04-29T23:39:52.117Z,57.11
2019-04-29T23:42:21.888Z,57.24
2019-04-29T23:44:52.510Z,57.60
2019-04-29T23:47:22.843Z,57.61
2019-04-29T23:49:53.021Z,58.03
2019-04-29T23:52:23.077Z,57.79
2019-04-29T23:54:52.823Z,58.42
2019-04-29T23:57:47.701Z,58.33
